createdAt,value
2017-11-23T00:01:12.521Z,99592
2017-11-23T00:03:40.597Z,99591
2017-11-23T00:06:08.694Z,99588
2017-11-23T00:08:40.310Z,99596
2017-11-23T00:11:09.327Z,99590
2017-11-23T00:13:37.416Z,99588
2017-11-23T00:16:05.576Z,99587
2017-11-23T00:18:33.736Z,99590
2017-11-23T00:21:01.842Z,99590
2017-11-23T00:23:29.980Z,99579
2017-11-23T00:25:58.048Z,99560
2017-11-23T00:28:26.261Z,99556
2017-11-23T00:30:54.328Z,99571
2017-11-23T00:33:22.614Z,99572
2017-11-23T00:35:50.683Z,99570
2017-11-23T00:38:18.761Z,99565
2017-11-23T00:40:47.681Z,99577
2017-11-23T00:43:15.777Z,99587
2017-11-23T00:45:43.894Z,99586
2017-11-23T00:48:11.959Z,99567
2017-11-23T00:50:40.060Z,99570
2017-11-23T00:53:09.970Z,99587
2017-11-23T00:55:38.057Z,99570
2017-11-23T00:58:06.116Z,99572
2017-11-23T01:00:34.204Z,99579
2017-11-23T01:03:02.283Z,99580
2017-11-23T01:05:30.350Z,99583
2017-11-23T01:07:58.461Z,99581
2017-11-23T01:10:26.530Z,99575
2017-11-23T01:12:54.708Z,99575
2017-11-23T01:15:22.768Z,99576
2017-11-23T01:17:50.894Z,99572
2017-11-23T01:20:19.732Z,99577
2017-11-23T01:22:47.808Z,99571
2017-11-23T01:25:16.015Z,99561
2017-11-23T01:27:44.180Z,99557
2017-11-23T01:30:13.386Z,99562
2017-11-23T01:32:41.500Z,99550
2017-11-23T01:35:09.813Z,99542
2017-11-23T01:37:37.920Z,99529
2017-11-23T01:40:06.218Z,99521
2017-11-23T01:42:34.294Z,99527
2017-11-23T01:45:02.596Z,99518
2017-11-23T01:47:30.681Z,99513
2017-11-23T01:49:58.757Z,99529
2017-11-23T01:52:26.879Z,99539
2017-11-23T01:54:55.005Z,99542
2017-11-23T01:57:23.076Z,99535
2017-11-23T01:59:51.164Z,99523
2017-11-23T02:02:19.250Z,99516
2017-11-23T02:04:48.846Z,99522
2017-11-23T02:07:16.932Z,99519
2017-11-23T02:09:45.774Z,99515
2017-11-23T02:12:13.905Z,99508
2017-11-23T02:14:42.745Z,99510
2017-11-23T02:17:10.817Z,99499
2017-11-23T02:19:40.077Z,99497
2017-11-23T02:22:08.164Z,99480
2017-11-23T02:24:36.258Z,99464
2017-11-23T02:27:04.353Z,99458
2017-11-23T02:29:32.480Z,99455
2017-11-23T02:32:00.641Z,99444
2017-11-23T02:34:28.719Z,99444
2017-11-23T02:36:56.838Z,99434
2017-11-23T02:39:24.906Z,99438
2017-11-23T02:41:52.999Z,99443
2017-11-23T02:44:21.836Z,99450
2017-11-23T02:46:50.006Z,99460
2017-11-23T02:49:18.078Z,99467
2017-11-23T02:51:46.182Z,99484
2017-11-23T02:54:14.346Z,99479
2017-11-23T02:56:42.684Z,99479
2017-11-23T02:59:10.746Z,99475
2017-11-23T03:01:38.825Z,99459
2017-11-23T03:04:06.925Z,99450
2017-11-23T03:06:34.990Z,99449
2017-11-23T03:09:03.103Z,99439
2017-11-23T03:11:31.210Z,99446
2017-11-23T03:13:59.304Z,99449
2017-11-23T03:16:27.375Z,99447
2017-11-23T03:18:55.486Z,99430
2017-11-23T03:21:23.557Z,99436
2017-11-23T03:23:51.632Z,99443
2017-11-23T03:26:19.781Z,99437
2017-11-23T03:28:48.172Z,99438
2017-11-23T03:31:16.243Z,99443
2017-11-23T03:33:44.333Z,99437
2017-11-23T03:36:12.467Z,99443
2017-11-23T03:38:40.541Z,99440
2017-11-23T03:41:08.658Z,99425
2017-11-23T03:43:36.725Z,99438
2017-11-23T03:46:05.601Z,99434
2017-11-23T03:48:33.758Z,99428
2017-11-23T03:51:01.819Z,99417
2017-11-23T03:53:30.916Z,99424
2017-11-23T03:55:58.993Z,99426
2017-11-23T03:58:27.061Z,99431
2017-11-23T04:00:55.134Z,99441
2017-11-23T04:03:23.249Z,99441
2017-11-23T04:05:51.336Z,99444
2017-11-23T04:08:20.192Z,99429
2017-11-23T04:10:48.333Z,99434
2017-11-23T04:13:16.402Z,99436
2017-11-23T04:15:44.493Z,99443
2017-11-23T04:18:12.576Z,99446
2017-11-23T04:20:40.733Z,99446
2017-11-23T04:23:08.825Z,99434
2017-11-23T04:25:36.967Z,99441
2017-11-23T04:28:05.093Z,99442
2017-11-23T04:30:33.161Z,99428
2017-11-23T04:33:01.285Z,99418
2017-11-23T04:35:29.364Z,99415
2017-11-23T04:37:57.440Z,99433
2017-11-23T04:40:25.563Z,99417
2017-11-23T04:42:53.659Z,99423
2017-11-23T04:45:21.973Z,99401
2017-11-23T04:47:50.148Z,99414
2017-11-23T04:50:18.564Z,99406
2017-11-23T04:52:46.636Z,99408
2017-11-23T04:55:14.771Z,99410
2017-11-23T04:57:42.840Z,99393
2017-11-23T05:00:10.942Z,99388
2017-11-23T05:02:39.070Z,99386
2017-11-23T05:05:07.153Z,99396
2017-11-23T05:07:35.248Z,99397
2017-11-23T05:10:03.352Z,99383
2017-11-23T05:12:32.220Z,99384
2017-11-23T05:15:00.284Z,99385
2017-11-23T05:17:28.390Z,99382
2017-11-23T05:19:57.358Z,99393
2017-11-23T05:22:25.426Z,99410
2017-11-23T05:24:53.517Z,99395
2017-11-23T05:27:21.753Z,99398
2017-11-23T05:29:49.840Z,99401
2017-11-23T05:32:18.013Z,99398
2017-11-23T05:34:46.088Z,99399
2017-11-23T05:37:14.171Z,99417
2017-11-23T05:39:42.250Z,99389
2017-11-23T05:42:10.353Z,99400
2017-11-23T05:44:38.425Z,99404
2017-11-23T05:47:06.524Z,99408
2017-11-23T05:49:34.604Z,99395
2017-11-23T05:52:02.700Z,99402
2017-11-23T05:54:30.771Z,99403
2017-11-23T05:56:58.864Z,99399
2017-11-23T05:59:28.299Z,99397
2017-11-23T06:01:56.422Z,99395
2017-11-23T06:04:24.669Z,99386
2017-11-23T06:06:52.982Z,99389
2017-11-23T06:09:21.149Z,99384
2017-11-23T06:11:49.279Z,99376
2017-11-23T06:14:17.374Z,99365
2017-11-23T06:16:45.457Z,99367
2017-11-23T06:19:13.553Z,99363
2017-11-23T06:21:42.417Z,99376
2017-11-23T06:24:10.481Z,99382
2017-11-23T06:26:38.570Z,99377
2017-11-23T06:29:06.651Z,99381
2017-11-23T06:31:35.787Z,99388
2017-11-23T06:34:03.900Z,99397
2017-11-23T06:36:31.981Z,99401
2017-11-23T06:39:00.073Z,99388
2017-11-23T06:41:28.179Z,99382
2017-11-23T06:43:56.367Z,99376
2017-11-23T06:46:24.469Z,99370
2017-11-23T06:48:52.558Z,99382
2017-11-23T06:51:20.650Z,99395
2017-11-23T06:53:48.748Z,99393
2017-11-23T06:56:16.825Z,99389
2017-11-23T06:58:44.939Z,99392
2017-11-23T07:01:13.046Z,99378
2017-11-23T07:03:41.144Z,99390
2017-11-23T07:06:09.244Z,99390
2017-11-23T07:08:37.333Z,99393
2017-11-23T07:11:05.427Z,99389
2017-11-23T07:13:34.280Z,99403
2017-11-23T07:16:02.393Z,99391
2017-11-23T07:18:31.293Z,99393
2017-11-23T07:20:59.385Z,99397
2017-11-23T07:23:27.492Z,99401
2017-11-23T07:25:55.607Z,99401
2017-11-23T07:28:23.691Z,99404
2017-11-23T07:30:51.803Z,99392
2017-11-23T07:33:19.885Z,99398
2017-11-23T07:35:47.996Z,99390
2017-11-23T07:38:16.072Z,99385
2017-11-23T07:40:44.168Z,99381
2017-11-23T07:43:12.321Z,99389
2017-11-23T07:45:40.425Z,99398
2017-11-23T07:48:08.611Z,99395
2017-11-23T07:50:36.681Z,99388
2017-11-23T07:53:04.837Z,99396
2017-11-23T07:55:32.932Z,99384
2017-11-23T07:58:01.053Z,99401
2017-11-23T08:00:29.169Z,99396
2017-11-23T08:02:57.240Z,99396
2017-11-23T08:05:25.333Z,99398
2017-11-23T08:07:53.440Z,99396
2017-11-23T08:10:21.513Z,99404
2017-11-23T08:12:49.613Z,99398
2017-11-23T08:15:17.767Z,99400
2017-11-23T08:17:45.838Z,99407
2017-11-23T08:20:13.947Z,99404
2017-11-23T08:22:42.086Z,99413
2017-11-23T08:25:10.176Z,99404
2017-11-23T08:27:38.272Z,99408
2017-11-23T08:30:06.684Z,99413
2017-11-23T08:32:34.754Z,99409
2017-11-23T08:35:02.832Z,99408
2017-11-23T08:37:31.701Z,99415
2017-11-23T08:39:59.807Z,99417
2017-11-23T08:42:28.841Z,99423
2017-11-23T08:44:56.937Z,99415
2017-11-23T08:47:25.009Z,99426
2017-11-23T08:49:53.206Z,99422
2017-11-23T08:52:22.100Z,99417
2017-11-23T08:54:54.362Z,99401
2017-11-23T08:57:23.664Z,99424
2017-11-23T08:59:52.532Z,99424
2017-11-23T09:02:20.613Z,99427
2017-11-23T09:04:48.713Z,99409
2017-11-23T09:07:16.978Z,99423
2017-11-23T09:09:45.065Z,99417
2017-11-23T09:12:15.028Z,99408
2017-11-23T09:14:43.125Z,99432
2017-11-23T09:17:11.208Z,99418
2017-11-23T09:19:40.219Z,99431
2017-11-23T09:22:08.304Z,99433
2017-11-23T09:24:36.425Z,99448
2017-11-23T09:27:07.349Z,99436
2017-11-23T09:29:35.461Z,99444
2017-11-23T09:32:03.580Z,99460
2017-11-23T09:34:32.385Z,99464
2017-11-23T09:37:00.687Z,99468
2017-11-23T09:39:30.781Z,99470
2017-11-23T09:41:58.873Z,99469
2017-11-23T09:44:26.968Z,99474
2017-11-23T09:46:56.158Z,99471
2017-11-23T09:49:24.233Z,99486
2017-11-23T09:51:52.346Z,99471
2017-11-23T09:54:20.423Z,99482
2017-11-23T09:56:48.556Z,99485
2017-11-23T09:59:17.432Z,99490
2017-11-23T10:01:45.653Z,99489
2017-11-23T10:04:14.153Z,99495
2017-11-23T10:06:42.224Z,99502
2017-11-23T10:09:11.960Z,99506
2017-11-23T10:11:40.453Z,99498
2017-11-23T10:14:14.828Z,99504
2017-11-23T10:16:42.932Z,99514
2017-11-23T10:19:11.774Z,99513
2017-11-23T10:21:39.889Z,99511
2017-11-23T10:24:07.977Z,99518
2017-11-23T10:26:36.850Z,99523
2017-11-23T10:29:04.958Z,99524
2017-11-23T10:31:33.069Z,99528
2017-11-23T10:34:04.283Z,99515
2017-11-23T10:36:32.372Z,99536
2017-11-23T10:39:00.461Z,99537
2017-11-23T10:41:28.565Z,99536
2017-11-23T10:43:56.651Z,99535
2017-11-23T10:46:24.749Z,99537
2017-11-23T10:48:53.064Z,99547
2017-11-23T10:51:21.153Z,99541
2017-11-23T10:53:49.383Z,99544
2017-11-23T10:56:17.534Z,99548
2017-11-23T10:58:46.395Z,99552
2017-11-23T11:01:14.548Z,99563
2017-11-23T11:03:43.658Z,99555
2017-11-23T11:06:11.836Z,99560
2017-11-23T11:08:39.928Z,99564
2017-11-23T11:11:08.793Z,99572
2017-11-23T11:13:36.903Z,99567
2017-11-23T11:16:04.990Z,99550
2017-11-23T11:18:33.401Z,99570
2017-11-23T11:21:01.490Z,99571
2017-11-23T11:23:29.561Z,99568
2017-11-23T11:25:57.665Z,99566
2017-11-23T11:28:26.529Z,99584
2017-11-23T11:30:54.629Z,99590
2017-11-23T11:33:23.505Z,99591
2017-11-23T11:35:52.386Z,99595
2017-11-23T11:38:20.462Z,99604
2017-11-23T11:40:48.572Z,99597
2017-11-23T11:43:16.652Z,99605
2017-11-23T11:45:44.757Z,99604
2017-11-23T11:48:12.839Z,99597
2017-11-23T11:50:40.929Z,99608
2017-11-23T11:53:09.825Z,99634
2017-11-23T11:55:38.669Z,99614
2017-11-23T11:58:06.784Z,99607
2017-11-23T12:00:35.658Z,99602
2017-11-23T12:03:03.736Z,99607
2017-11-23T12:05:31.909Z,99616
2017-11-23T12:08:00.003Z,99629
2017-11-23T12:10:28.116Z,99626
2017-11-23T12:12:56.229Z,99630
2017-11-23T12:15:33.085Z,99624
2017-11-23T12:18:18.940Z,99630
2017-11-23T12:21:04.790Z,99629
2017-11-23T12:23:45.677Z,99651
2017-11-23T12:26:13.776Z,99647
2017-11-23T12:31:47.082Z,99656
2017-11-23T12:34:15.211Z,99646
2017-11-23T12:36:43.293Z,99650
2017-11-23T12:39:11.386Z,99642
2017-11-23T12:41:39.528Z,99641
2017-11-23T12:44:07.643Z,99647
2017-11-23T12:46:35.720Z,99647
2017-11-23T12:49:03.825Z,99648
2017-11-23T12:51:31.922Z,99641
2017-11-23T12:54:00.032Z,99654
2017-11-23T12:56:28.125Z,99648
2017-11-23T12:58:56.226Z,99666
2017-11-23T13:01:24.365Z,99665
2017-11-23T13:03:52.446Z,99677
2017-11-23T13:06:20.567Z,99669
2017-11-23T13:08:49.461Z,99676
2017-11-23T13:11:17.573Z,99672
2017-11-23T13:13:45.665Z,99680
2017-11-23T13:16:13.754Z,99685
2017-11-23T13:18:41.859Z,99681
2017-11-23T13:21:11.681Z,99691
2017-11-23T13:23:39.770Z,99695
2017-11-23T13:26:07.882Z,99704
2017-11-23T13:28:35.985Z,99697
2017-11-23T13:31:04.060Z,99692
2017-11-23T13:33:32.913Z,99700
2017-11-23T13:36:01.013Z,99688
2017-11-23T13:38:29.881Z,99684
2017-11-23T13:40:57.989Z,99690
2017-11-23T13:43:26.080Z,99680
2017-11-23T13:45:54.160Z,99678
2017-11-23T13:48:22.330Z,99688
2017-11-23T13:50:50.421Z,99697
2017-11-23T13:53:19.412Z,99698
2017-11-23T13:55:47.525Z,99697
2017-11-23T13:58:15.619Z,99694
2017-11-23T14:00:44.572Z,99698
2017-11-23T14:03:12.650Z,99690
2017-11-23T14:05:40.753Z,99685
2017-11-23T14:08:08.872Z,99691
2017-11-23T14:10:36.985Z,99687
2017-11-23T14:13:05.849Z,99685
2017-11-23T14:15:33.945Z,99699
2017-11-23T14:18:02.020Z,99682
2017-11-23T14:20:30.192Z,99697
2017-11-23T14:22:58.286Z,99703
2017-11-23T14:25:27.153Z,99714
2017-11-23T14:27:55.231Z,99723
2017-11-23T14:30:24.210Z,99706
2017-11-23T14:32:52.324Z,99710
2017-11-23T14:35:20.449Z,99730
2017-11-23T14:37:48.554Z,99728
2017-11-23T14:40:17.404Z,99737
2017-11-23T14:42:45.497Z,99733
2017-11-23T14:45:13.602Z,99735
2017-11-23T14:47:41.886Z,99736
2017-11-23T14:50:09.970Z,99752
2017-11-23T14:52:38.096Z,99752
2017-11-23T14:55:06.964Z,99744
2017-11-23T14:57:35.058Z,99745
2017-11-23T15:00:03.212Z,99743
2017-11-23T15:02:32.322Z,99750
2017-11-23T15:05:00.409Z,99743
2017-11-23T15:07:29.268Z,99754
2017-11-23T15:09:57.348Z,99754
2017-11-23T15:12:26.005Z,99760
2017-11-23T15:14:54.089Z,99757
2017-11-23T15:17:22.211Z,99757
2017-11-23T15:19:51.081Z,99754
2017-11-23T15:22:19.183Z,99761
2017-11-23T15:24:47.987Z,99773
2017-11-23T15:27:16.108Z,99780
2017-11-23T15:29:44.210Z,99780
2017-11-23T15:32:12.293Z,99775
2017-11-23T15:34:40.396Z,99785
2017-11-23T15:37:08.488Z,99776
2017-11-23T15:39:36.562Z,99788
2017-11-23T15:42:04.659Z,99781
2017-11-23T15:44:33.562Z,99788
2017-11-23T15:47:02.426Z,99789
2017-11-23T15:49:31.281Z,99787
2017-11-23T15:52:00.274Z,99805
2017-11-23T15:54:28.396Z,99807
2017-11-23T15:56:57.257Z,99825
2017-11-23T15:59:25.368Z,99833
2017-11-23T16:01:53.944Z,99869
2017-11-23T16:04:22.015Z,99897
2017-11-23T16:06:51.570Z,99919
2017-11-23T16:09:20.149Z,99929
2017-11-23T16:11:48.241Z,99915
2017-11-23T16:14:16.690Z,99929
2017-11-23T16:16:44.768Z,99928
2017-11-23T16:19:12.893Z,99947
2017-11-23T16:21:41.788Z,99942
2017-11-23T16:24:10.673Z,99943
2017-11-23T16:26:38.984Z,99944
2017-11-23T16:29:07.090Z,99952
2017-11-23T16:31:35.493Z,99960
2017-11-23T16:34:03.588Z,99965
2017-11-23T16:36:32.347Z,99972
2017-11-23T16:39:04.313Z,99975
2017-11-23T16:41:36.813Z,99971
2017-11-23T16:47:15.759Z,99965
2017-11-23T16:53:01.521Z,99985
2017-11-23T16:55:35.049Z,99990
2017-11-23T16:58:06.507Z,100008
2017-11-23T17:00:38.070Z,100014
2017-11-23T17:03:11.798Z,100018
2017-11-23T17:05:46.369Z,100032
2017-11-23T17:08:20.857Z,100027
2017-11-23T17:13:59.588Z,100048
2017-11-23T17:16:33.382Z,100062
2017-11-23T17:19:03.908Z,100059
2017-11-23T17:21:32.973Z,100076
2017-11-23T17:24:01.073Z,100081
2017-11-23T17:26:29.946Z,100076
2017-11-23T17:28:58.051Z,100084
2017-11-23T17:31:26.144Z,100086
2017-11-23T17:33:55.170Z,100077
2017-11-23T17:36:23.274Z,100084
2017-11-23T17:38:51.361Z,100085
2017-11-23T17:41:19.480Z,100087
2017-11-23T17:43:47.621Z,100092
2017-11-23T17:46:15.725Z,100097
2017-11-23T17:48:43.829Z,100102
2017-11-23T17:51:11.953Z,100110
2017-11-23T17:53:40.044Z,100113
2017-11-23T17:56:08.185Z,100100
2017-11-23T18:05:20.709Z,100102
2017-11-23T18:07:49.581Z,100106
2017-11-23T18:10:18.415Z,100110
2017-11-23T18:12:47.204Z,100120
2017-11-23T18:15:15.991Z,100112
2017-11-23T18:17:44.382Z,100115
2017-11-23T18:20:12.858Z,100110
2017-11-23T18:22:41.652Z,100110
2017-11-23T18:25:09.762Z,100105
2017-11-23T18:27:38.053Z,100102
2017-11-23T18:30:07.392Z,100119
2017-11-23T18:32:35.596Z,100116
2017-11-23T18:35:03.695Z,100110
2017-11-23T18:37:33.030Z,100108
2017-11-23T18:40:01.225Z,100117
2017-11-23T18:42:29.362Z,100120
2017-11-23T18:44:57.550Z,100127
2017-11-23T18:47:25.644Z,100127
2017-11-23T18:49:53.868Z,100124
2017-11-23T18:52:21.962Z,100129
2017-11-23T18:54:50.129Z,100131
2017-11-23T18:57:19.043Z,100121
2017-11-23T18:59:47.132Z,100113
2017-11-23T19:02:15.231Z,100107
2017-11-23T19:04:43.317Z,100119
2017-11-23T19:07:11.505Z,100126
2017-11-23T19:09:39.772Z,100139
2017-11-23T19:12:07.985Z,100152
2017-11-23T19:14:36.174Z,100147
2017-11-23T19:17:04.283Z,100168
2017-11-23T19:19:32.399Z,100170
2017-11-23T19:22:00.544Z,100167
2017-11-23T19:24:28.773Z,100180
2017-11-23T19:26:57.150Z,100188
2017-11-23T19:29:25.291Z,100187
2017-11-23T19:31:53.510Z,100179
2017-11-23T19:34:22.204Z,100181
2017-11-23T19:36:50.320Z,100188
2017-11-23T19:39:18.477Z,100193
2017-11-23T19:41:46.749Z,100201
2017-11-23T19:44:14.846Z,100215
2017-11-23T19:46:42.996Z,100204
2017-11-23T19:49:11.205Z,100217
2017-11-23T19:51:39.294Z,100216
2017-11-23T19:54:07.405Z,100217
2017-11-23T19:56:35.528Z,100216
2017-11-23T19:59:03.685Z,100227
2017-11-23T20:01:32.601Z,100221
2017-11-23T20:04:00.673Z,100229
2017-11-23T20:06:28.854Z,100227
2017-11-23T20:08:56.980Z,100237
2017-11-23T20:11:25.196Z,100239
2017-11-23T20:13:53.537Z,100247
2017-11-23T20:16:21.738Z,100242
2017-11-23T20:18:50.093Z,100244
2017-11-23T20:21:18.577Z,100244
2017-11-23T20:23:47.448Z,100245
2017-11-23T20:26:15.545Z,100248
2017-11-23T20:28:43.858Z,100253
2017-11-23T20:31:11.991Z,100249
2017-11-23T20:33:40.174Z,100248
2017-11-23T20:36:09.057Z,100246
2017-11-23T20:38:37.932Z,100250
2017-11-23T20:41:06.134Z,100266
2017-11-23T20:43:34.504Z,100266
2017-11-23T20:46:02.653Z,100259
2017-11-23T20:48:30.778Z,100246
2017-11-23T20:50:58.872Z,100264
2017-11-23T20:53:27.169Z,100268
2017-11-23T20:55:55.378Z,100262
2017-11-23T20:58:24.297Z,100262
2017-11-23T21:00:53.069Z,100261
2017-11-23T21:03:21.211Z,100265
2017-11-23T21:05:49.444Z,100265
2017-11-23T21:08:17.566Z,100257
2017-11-23T21:10:46.581Z,100262
2017-11-23T21:13:14.796Z,100265
2017-11-23T21:15:43.516Z,100268
2017-11-23T21:18:11.660Z,100266
2017-11-23T21:20:39.861Z,100278
2017-11-23T21:23:08.269Z,100282
2017-11-23T21:25:36.384Z,100283
2017-11-23T21:28:04.492Z,100284
2017-11-23T21:30:33.396Z,100269
2017-11-23T21:33:02.272Z,100266
2017-11-23T21:35:30.373Z,100279
2017-11-23T21:37:59.376Z,100271
2017-11-23T21:40:28.353Z,100268
2017-11-23T21:42:56.956Z,100286
2017-11-23T21:45:25.053Z,100286
2017-11-23T21:47:53.144Z,100288
2017-11-23T21:50:21.280Z,100282
2017-11-23T21:52:49.359Z,100291
2017-11-23T21:55:17.457Z,100286
2017-11-23T21:57:45.637Z,100280
2017-11-23T22:00:14.403Z,100283
2017-11-23T22:02:43.147Z,100263
2017-11-23T22:05:11.256Z,100268
2017-11-23T22:07:39.379Z,100266
2017-11-23T22:10:08.248Z,100256
2017-11-23T22:12:36.446Z,100255
2017-11-23T22:15:05.328Z,100255
2017-11-23T22:17:33.431Z,100255
2017-11-23T22:20:01.537Z,100261
2017-11-23T22:22:29.893Z,100272
2017-11-23T22:24:57.993Z,100267
2017-11-23T22:27:26.318Z,100272
2017-11-23T22:29:55.161Z,100277
2017-11-23T22:32:23.267Z,100273
2017-11-23T22:34:51.437Z,100267
2017-11-23T22:37:19.585Z,100258
2017-11-23T22:39:47.688Z,100258
2017-11-23T22:42:16.541Z,100259
2017-11-23T22:44:45.637Z,100262
2017-11-23T22:47:14.453Z,100257
2017-11-23T22:49:42.542Z,100260
2017-11-23T22:52:11.582Z,100257
2017-11-23T22:54:39.669Z,100260
2017-11-23T22:57:07.779Z,100262
2017-11-23T22:59:35.871Z,100267
2017-11-23T23:02:03.977Z,100268
2017-11-23T23:04:32.114Z,100253
2017-11-23T23:07:00.799Z,100252
2017-11-23T23:09:28.909Z,100246
2017-11-23T23:11:56.988Z,100233
2017-11-23T23:14:25.084Z,100237
2017-11-23T23:16:53.164Z,100236
2017-11-23T23:19:22.057Z,100248
2017-11-23T23:21:50.925Z,100229
2017-11-23T23:24:19.028Z,100222
2017-11-23T23:26:47.326Z,100238
2017-11-23T23:29:15.429Z,100225
2017-11-23T23:31:43.520Z,100231
2017-11-23T23:34:11.711Z,100219
2017-11-23T23:36:40.208Z,100225
2017-11-23T23:39:09.062Z,100229
2017-11-23T23:41:37.171Z,100227
2017-11-23T23:44:06.036Z,100237
2017-11-23T23:46:34.147Z,100243
2017-11-23T23:49:02.258Z,100237
2017-11-23T23:51:30.348Z,100231
2017-11-23T23:53:58.476Z,100233
2017-11-23T23:56:26.568Z,100232
2017-11-23T23:58:54.694Z,100241
